createdAt,value
2023-02-09T00:03:36.392Z,21.10
2023-02-09T00:08:38.783Z,16.67
2023-02-09T00:13:44.221Z,18.13
2023-02-09T00:18:48.487Z,23.08
2023-02-09T00:23:51.981Z,25.27
2023-02-09T00:28:54.844Z,26.35
2023-02-09T00:33:58.233Z,17.77
2023-02-09T00:39:03.198Z,19.17
2023-02-09T00:44:06.229Z,18.77
2023-02-09T00:49:09.354Z,21.55
2023-02-09T00:54:13.153Z,18.27
2023-02-09T00:59:16.329Z,18.08
2023-02-09T01:04:21.007Z,19.60
2023-02-09T01:09:24.583Z,20.48
2023-02-09T01:14:28.915Z,18.15
2023-02-09T01:19:35.469Z,20.02
2023-02-09T01:24:41.272Z,20.13
2023-02-09T01:29:43.867Z,20.95
2023-02-09T01:34:46.547Z,19.05
2023-02-09T01:39:49.461Z,19.25
2023-02-09T01:45:06.669Z,17.83
2023-02-09T01:50:10.653Z,18.77
2023-02-09T01:55:18.072Z,21.98
2023-02-09T02:00:22.393Z,22.60
2023-02-09T02:05:28.457Z,24.95
2023-02-09T02:10:31.735Z,20.90
2023-02-09T02:15:59.520Z,20.80
2023-02-09T02:21:26.428Z,22.33
2023-02-09T02:26:48.855Z,23.55
2023-02-09T02:32:03.424Z,22.05
2023-02-09T02:37:11.866Z,23.05
2023-02-09T02:42:42.396Z,21.90
2023-02-09T02:47:53.943Z,19.58
2023-02-09T02:52:59.489Z,23.83
2023-02-09T02:58:06.664Z,19.55
2023-02-09T03:03:14.314Z,20.38
2023-02-09T03:08:17.183Z,23.77
2023-02-09T03:13:47.066Z,23.17
2023-02-09T03:19:11.720Z,19.95
2023-02-09T03:24:52.058Z,20.98
2023-02-09T03:29:59.951Z,19.52
2023-02-09T03:40:05.782Z,19.83
2023-02-09T03:45:10.647Z,20.33
2023-02-09T03:50:13.539Z,23.23
2023-02-09T03:55:16.634Z,22.45
2023-02-09T04:00:19.735Z,18.60
2023-02-09T04:05:23.776Z,21.95
2023-02-09T04:10:26.379Z,20.40
2023-02-09T04:15:29.184Z,21.70
2023-02-09T04:20:32.084Z,28.52
2023-02-09T04:25:34.452Z,19.95
2023-02-09T04:30:37.117Z,24.02
2023-02-09T04:35:39.496Z,22.23
2023-02-09T04:40:43.230Z,34.97
2023-02-09T04:45:46.809Z,22.85
2023-02-09T04:50:49.882Z,24.38
2023-02-09T04:55:53.969Z,22.77
2023-02-09T05:00:57.187Z,21.48
2023-02-09T05:06:05.306Z,26.98
2023-02-09T05:11:08.193Z,23.63
2023-02-09T05:16:16.357Z,26.13
2023-02-09T05:21:26.792Z,25.10
2023-02-09T05:26:31.542Z,21.17
2023-02-09T05:31:37.385Z,28.65
2023-02-09T05:36:41.465Z,25.88
2023-02-09T05:42:03.122Z,27.50
2023-02-09T05:47:09.550Z,24.23
2023-02-09T05:52:13.079Z,33.78
2023-02-09T05:57:17.459Z,29.08
2023-02-09T06:02:20.429Z,27.77
2023-02-09T06:07:23.859Z,31.10
2023-02-09T06:12:26.810Z,27.13
2023-02-09T06:17:32.757Z,29.45
2023-02-09T06:22:35.150Z,26.90
2023-02-09T06:27:38.729Z,27.88
2023-02-09T06:32:41.764Z,24.02
2023-02-09T06:37:44.158Z,29.20
2023-02-09T06:42:47.498Z,26.00
2023-02-09T06:47:50.036Z,29.35
2023-02-09T06:52:54.510Z,30.08
2023-02-09T06:57:58.700Z,29.15
2023-02-09T07:03:08.169Z,26.05
2023-02-09T07:08:15.116Z,29.92
2023-02-09T07:13:17.733Z,28.05
2023-02-09T07:18:22.714Z,34.08
2023-02-09T07:24:11.371Z,31.13
2023-02-09T07:29:17.511Z,32.08
2023-02-09T07:34:28.369Z,30.05
2023-02-09T07:39:32.332Z,28.00
2023-02-09T07:44:35.884Z,39.92
2023-02-09T07:49:39.375Z,31.67
2023-02-09T07:54:51.990Z,34.30
2023-02-09T08:00:00.870Z,37.53
2023-02-09T08:05:37.930Z,31.55
2023-02-09T08:10:42.629Z,36.28
2023-02-09T08:15:50.372Z,34.13
2023-02-09T08:20:55.039Z,42.83
2023-02-09T08:26:03.038Z,30.38
2023-02-09T08:31:06.683Z,36.72
2023-02-09T08:36:11.195Z,31.63
2023-02-09T08:41:16.977Z,29.77
2023-02-09T08:46:20.105Z,26.95
2023-02-09T08:51:27.238Z,25.17
2023-02-09T08:56:29.839Z,27.38
2023-02-09T09:01:41.567Z,26.17
2023-02-09T09:06:49.076Z,23.95
2023-02-09T09:11:52.966Z,21.20
2023-02-09T09:17:00.945Z,22.10
2023-02-09T09:22:05.853Z,21.48
2023-02-09T09:27:11.196Z,26.60
2023-02-09T09:32:14.679Z,35.72
2023-02-09T09:37:19.045Z,24.50
2023-02-09T09:42:41.669Z,24.65
2023-02-09T09:48:49.412Z,22.50
2023-02-09T09:54:23.333Z,23.45
2023-02-09T09:59:35.860Z,20.35
2023-02-09T10:04:39.005Z,25.60
2023-02-09T10:10:12.289Z,23.17
2023-02-09T10:15:31.011Z,22.33
2023-02-09T10:20:48.618Z,21.70
2023-02-09T10:26:10.038Z,19.98
2023-02-09T10:31:32.293Z,21.67
2023-02-09T10:37:05.651Z,20.50
2023-02-09T10:42:55.228Z,21.15
2023-02-09T10:48:03.211Z,21.67
2023-02-09T10:53:35.739Z,16.52
2023-02-09T10:58:39.067Z,23.70
2023-02-09T11:04:19.675Z,19.42
2023-02-09T11:09:31.947Z,20.17
2023-02-09T11:14:36.971Z,21.40
2023-02-09T11:20:09.678Z,21.70
2023-02-09T11:25:30.838Z,16.65
2023-02-09T11:30:56.317Z,27.75
2023-02-09T11:36:22.193Z,21.13
2023-02-09T11:42:12.195Z,23.02
2023-02-09T11:47:23.170Z,17.00
2023-02-09T11:52:41.219Z,20.00
2023-02-09T11:57:51.712Z,21.63
2023-02-09T12:03:12.061Z,23.02
2023-02-09T12:08:35.313Z,28.73
2023-02-09T12:14:08.610Z,30.02
2023-02-09T12:19:34.267Z,22.98
2023-02-09T12:24:40.990Z,26.00
2023-02-09T12:29:44.901Z,25.42
2023-02-09T12:34:56.432Z,27.42
2023-02-09T12:40:05.888Z,24.60
2023-02-09T12:45:40.944Z,24.38
2023-02-09T12:50:44.259Z,27.35
2023-02-09T12:56:10.314Z,23.05
2023-02-09T13:01:15.379Z,26.38
2023-02-09T13:06:36.461Z,14.82
2023-02-09T13:11:51.804Z,23.27
2023-02-09T13:17:22.613Z,16.27
2023-02-09T13:23:00.528Z,15.52
2023-02-09T13:28:25.049Z,12.30
2023-02-09T13:33:48.324Z,17.30
2023-02-09T13:38:51.953Z,13.57
2023-02-09T13:43:54.649Z,18.75
2023-02-09T13:49:11.670Z,16.52
2023-02-09T13:54:20.304Z,34.75
2023-02-09T13:59:23.547Z,15.40
2023-02-09T14:04:34.374Z,19.98
2023-02-09T14:10:02.119Z,14.48
2023-02-09T14:15:24.703Z,22.92
2023-02-09T14:20:27.805Z,16.63
2023-02-09T14:25:31.708Z,17.23
2023-02-09T14:30:38.326Z,16.23
2023-02-09T14:35:42.411Z,16.55
2023-02-09T14:40:45.371Z,20.52
2023-02-09T14:45:58.340Z,17.05
2023-02-09T14:51:11.012Z,21.02
2023-02-09T14:56:32.113Z,23.60
2023-02-09T15:01:35.206Z,16.92
2023-02-09T15:06:40.961Z,18.48
2023-02-09T15:12:03.698Z,22.40
2023-02-09T15:17:28.400Z,18.92
2023-02-09T15:22:31.564Z,17.42
2023-02-09T15:27:36.772Z,16.75
2023-02-09T15:32:39.129Z,16.70
2023-02-09T15:37:45.912Z,16.60
2023-02-09T15:48:10.171Z,14.63
2023-02-09T15:53:15.866Z,21.52
2023-02-09T15:58:28.188Z,19.40
2023-02-09T16:03:34.188Z,19.80
2023-02-09T16:08:38.698Z,18.70
2023-02-09T16:13:41.410Z,19.08
2023-02-09T16:18:46.443Z,15.43
2023-02-09T16:23:50.520Z,17.52
2023-02-09T16:28:53.706Z,15.63
2023-02-09T16:33:56.186Z,14.57
2023-02-09T16:39:00.226Z,14.35
2023-02-09T16:44:33.453Z,17.20
2023-02-09T16:49:43.288Z,15.13
2023-02-09T16:54:51.165Z,17.00
2023-02-09T16:59:54.769Z,16.50
2023-02-09T17:04:58.227Z,14.60
2023-02-09T17:10:02.813Z,18.05
2023-02-09T17:15:06.317Z,17.30
2023-02-09T17:20:16.114Z,15.82
2023-02-09T17:25:20.772Z,16.67
2023-02-09T17:30:23.480Z,17.23
2023-02-09T17:35:53.080Z,14.20
2023-02-09T17:40:50.886Z,17.05
2023-02-09T17:45:54.753Z,14.95
2023-02-09T17:51:00.353Z,16.40
2023-02-09T17:56:03.787Z,14.60
2023-02-09T18:01:25.291Z,14.15
2023-02-09T18:06:40.006Z,15.60
2023-02-09T18:11:45.436Z,14.32
2023-02-09T18:16:48.429Z,15.63
2023-02-09T18:21:56.842Z,14.73
2023-02-09T18:26:59.768Z,15.80
2023-02-09T18:32:03.126Z,17.00
2023-02-09T18:37:07.150Z,14.65
2023-02-09T18:42:28.112Z,13.82
2023-02-09T18:47:33.060Z,16.05
2023-02-09T18:52:43.442Z,17.33
2023-02-09T18:57:46.428Z,18.92
2023-02-09T19:02:49.259Z,22.10
2023-02-09T19:07:52.124Z,22.35
2023-02-09T19:12:55.751Z,23.05
2023-02-09T19:17:58.473Z,22.80
2023-02-09T19:23:02.728Z,21.13
2023-02-09T19:28:05.515Z,18.75
2023-02-09T19:33:08.236Z,19.70
2023-02-09T19:38:10.872Z,21.75
2023-02-09T19:43:13.696Z,20.20
2023-02-09T19:48:16.161Z,21.83
2023-02-09T19:53:21.592Z,26.95
2023-02-09T19:58:24.542Z,25.52
2023-02-09T20:03:27.117Z,24.77
2023-02-09T20:08:30.028Z,23.67
2023-02-09T20:13:32.567Z,24.08
2023-02-09T20:18:35.644Z,24.23
2023-02-09T20:23:38.941Z,29.42
2023-02-09T20:28:42.606Z,25.10
2023-02-09T20:33:45.613Z,27.60
2023-02-09T20:38:48.201Z,25.63
2023-02-09T20:44:09.783Z,24.67
2023-02-09T20:49:15.636Z,24.83
2023-02-09T20:54:18.031Z,23.63
2023-02-09T20:59:20.542Z,26.58
2023-02-09T21:04:23.562Z,23.00
2023-02-09T21:09:29.047Z,21.88
2023-02-09T21:14:43.188Z,24.30
2023-02-09T21:19:47.339Z,28.60
2023-02-09T21:24:50.161Z,26.65
2023-02-09T21:29:53.284Z,27.77
2023-02-09T21:34:56.666Z,25.27
2023-02-09T21:40:03.146Z,24.30
2023-02-09T21:45:07.953Z,29.58
2023-02-09T21:50:16.621Z,26.38
2023-02-09T21:55:19.008Z,28.83
2023-02-09T22:00:21.912Z,24.15
2023-02-09T22:05:25.556Z,28.10
2023-02-09T22:10:27.964Z,24.02
2023-02-09T22:15:30.863Z,23.98
2023-02-09T22:20:33.591Z,20.23
2023-02-09T22:25:36.531Z,23.75
2023-02-09T22:30:39.572Z,22.10
2023-02-09T22:35:44.161Z,21.25
2023-02-09T22:40:47.076Z,21.80
2023-02-09T22:45:56.928Z,19.77
2023-02-09T22:50:59.324Z,20.77
2023-02-09T22:56:04.383Z,23.50
2023-02-09T23:01:08.009Z,21.63
2023-02-09T23:06:14.822Z,22.42
2023-02-09T23:11:17.822Z,20.02
2023-02-09T23:16:26.632Z,21.52
2023-02-09T23:21:32.872Z,22.63
2023-02-09T23:26:37.275Z,20.55
2023-02-09T23:31:43.063Z,25.30
2023-02-09T23:36:47.784Z,22.05
2023-02-09T23:41:50.762Z,22.73
2023-02-09T23:46:53.270Z,19.55
2023-02-09T23:51:56.247Z,20.83
2023-02-09T23:56:58.650Z,21.73
